createdAt,value
2023-04-28T00:02:42.409Z,2.7
2023-04-28T00:08:35.972Z,2.6
2023-04-28T00:14:27.367Z,2.5
2023-04-28T00:20:19.950Z,2.4
2023-04-28T00:26:11.344Z,2.4
2023-04-28T00:32:07.197Z,2.3
2023-04-28T00:37:58.803Z,2.2
2023-04-28T00:43:34.956Z,2.2
2023-04-28T00:49:10.931Z,2.1
2023-04-28T00:55:02.105Z,2
2023-04-28T01:00:38.101Z,1.9
2023-04-28T01:06:16.917Z,1.8
2023-04-28T01:12:08.359Z,1.8
2023-04-28T01:18:00.891Z,1.7
2023-04-28T01:23:51.555Z,1.7
2023-04-28T01:29:42.652Z,1.6
2023-04-28T01:35:34.384Z,1.6
2023-04-28T01:41:25.979Z,1.6
2023-04-28T01:47:17.623Z,1.5
2023-04-28T01:53:09.166Z,1.5
2023-04-28T01:59:02.675Z,1.4
2023-04-28T02:04:55.344Z,1.4
2023-04-28T02:10:46.569Z,1.3
2023-04-28T02:16:22.794Z,1.3
2023-04-28T02:22:16.974Z,1.2
2023-04-28T02:27:52.886Z,1.3
2023-04-28T02:33:29.590Z,1.3
2023-04-28T02:39:20.565Z,1.2
2023-04-28T02:45:11.943Z,1.1
2023-04-28T02:50:48.100Z,1.1
2023-04-28T02:56:39.891Z,1.1
2023-04-28T03:02:32.301Z,1.1
2023-04-28T03:08:09.970Z,1.1
2023-04-28T03:13:46.084Z,1.1
2023-04-28T03:19:08.060Z,1.1
2023-04-28T03:25:08.775Z,1.1
2023-04-28T03:30:44.612Z,1
2023-04-28T03:36:05.172Z,0.9
2023-04-28T03:41:57.462Z,0.9
2023-04-28T03:47:51.004Z,0.9
2023-04-28T03:53:41.757Z,0.9
2023-04-28T03:59:33.224Z,0.9
2023-04-28T04:05:27.829Z,1
2023-04-28T04:11:04.390Z,1.1
2023-04-28T04:16:57.330Z,1.3
2023-04-28T04:22:49.468Z,1.4
2023-04-28T04:28:40.534Z,1.6
2023-04-28T04:34:32.564Z,1.8
2023-04-28T04:40:24.034Z,2
2023-04-28T04:46:32.381Z,2.5
2023-04-28T04:52:24.780Z,3.5
2023-04-28T04:58:18.444Z,4.8
2023-04-28T05:04:11.658Z,6.2
2023-04-28T05:10:18.814Z,8
2023-04-28T05:16:13.570Z,9.9
2023-04-28T05:22:05.758Z,12
2023-04-28T05:27:57.820Z,14.3
2023-04-28T05:33:49.730Z,16.6
2023-04-28T05:39:41.212Z,19.2
2023-04-28T05:45:33.509Z,21.7
2023-04-28T05:51:37.394Z,24.3
2023-04-28T05:57:32.018Z,27.1
2023-04-28T06:03:14.471Z,29.9
2023-04-28T06:08:53.798Z,32.6
2023-04-28T06:14:29.784Z,37
2023-04-28T06:20:06.522Z,35.3
2023-04-28T06:25:26.957Z,29.6
2023-04-28T06:31:04.458Z,31.1
2023-04-28T06:36:27.521Z,35.8
2023-04-28T06:41:33.308Z,38.1
2023-04-28T06:46:57.050Z,34.9
2023-04-28T06:52:17.639Z,35.1
2023-04-28T06:58:15.675Z,36.4
2023-04-28T07:04:09.259Z,37.3
2023-04-28T07:10:05.416Z,39
2023-04-28T07:15:57.085Z,40.5
2023-04-28T07:21:48.875Z,42.2
2023-04-28T07:27:42.660Z,44.1
2023-04-28T07:33:52.345Z,45.1
2023-04-28T07:39:43.590Z,46
2023-04-28T07:45:38.436Z,46.7
2023-04-28T07:51:15.465Z,47.7
2023-04-28T07:57:06.587Z,48.7
2023-04-28T08:02:59.647Z,49.4
2023-04-28T08:08:54.019Z,50.4
2023-04-28T08:14:29.194Z,52
2023-04-28T08:20:24.706Z,53.4
2023-04-28T08:26:17.835Z,54.1
2023-04-28T08:31:39.755Z,54.9
2023-04-28T08:37:16.242Z,55.9
2023-04-28T08:42:55.548Z,55.9
2023-04-28T08:48:17.791Z,56.6
2023-04-28T08:54:25.190Z,57.3
2023-04-28T08:59:31.365Z,58.8
2023-04-28T09:05:10.797Z,59.5
2023-04-28T09:10:34.544Z,59.7
2023-04-28T09:15:55.638Z,60.2
2023-04-28T09:21:47.876Z,60.9
2023-04-28T09:27:57.102Z,60.3
2023-04-28T09:33:34.245Z,57.9
2023-04-28T09:38:56.973Z,57.8
2023-04-28T09:44:49.902Z,57.7
2023-04-28T09:50:11.344Z,58.2
2023-04-28T09:56:01.884Z,58.4
2023-04-28T10:01:54.358Z,59
2023-04-28T10:09:44.003Z,58.8
2023-04-28T10:21:11.617Z,59.2
2023-04-28T10:27:03.171Z,59.4
2023-04-28T10:33:07.448Z,59.1
2023-04-28T10:39:10.571Z,59.2
2023-04-28T10:45:01.797Z,58.9
2023-04-28T10:51:12.324Z,59.2
2023-04-28T10:57:15.826Z,58.3
2023-04-28T11:03:08.068Z,57.9
2023-04-28T11:09:00.886Z,57.9
2023-04-28T11:14:54.422Z,58.2
2023-04-28T11:20:30.730Z,58.8
2023-04-28T11:26:22.205Z,59.3
2023-04-28T11:32:13.750Z,59.8
2023-04-28T11:38:06.552Z,59.4
2023-04-28T11:44:04.547Z,59.2
2023-04-28T11:49:57.726Z,59.6
2023-04-28T11:55:49.728Z,59.3
2023-04-28T12:01:43.275Z,58.5
2023-04-28T12:07:39.695Z,57.9
2023-04-28T12:13:47.165Z,58
2023-04-28T12:19:39.816Z,58.1
2023-04-28T12:25:32.205Z,55.7
2023-04-28T12:31:07.766Z,59.4
2023-04-28T12:37:01.424Z,59.9
2023-04-28T12:42:53.804Z,54.3
2023-04-28T12:48:46.994Z,57.1
2023-04-28T12:54:38.562Z,62.8
2023-04-28T13:00:15.032Z,58.6
2023-04-28T13:06:08.961Z,53.4
2023-04-28T13:12:11.392Z,55.6
2023-04-28T13:18:03.703Z,57
2023-04-28T13:23:57.415Z,58.4
2023-04-28T13:29:34.297Z,55.6
2023-04-28T13:35:10.703Z,52.8
2023-04-28T13:41:03.177Z,53.1
2023-04-28T13:46:54.624Z,53.5
2023-04-28T13:52:45.730Z,53.3
2023-04-28T13:58:37.852Z,52.8
2023-04-28T14:04:31.089Z,52
2023-04-28T14:10:21.866Z,50.4
2023-04-28T14:16:24.948Z,49.2
2023-04-28T14:22:15.766Z,47.6
2023-04-28T14:28:07.163Z,46.5
2023-04-28T14:33:59.426Z,45.3
2023-04-28T14:39:51.921Z,42.9
2023-04-28T14:45:28.585Z,41.1
2023-04-28T14:51:20.477Z,39.6
2023-04-28T14:57:29.370Z,38.1
2023-04-28T15:03:06.647Z,36.6
2023-04-28T15:09:03.272Z,35.3
2023-04-28T15:14:39.294Z,33.5
2023-04-28T15:20:32.587Z,31.9
2023-04-28T15:26:24.618Z,30.6
2023-04-28T15:32:17.249Z,29
2023-04-28T15:38:10.460Z,27.8
2023-04-28T15:44:05.213Z,26.4
2023-04-28T15:49:57.480Z,25.3
2023-04-28T15:55:49.679Z,24.1
2023-04-28T16:01:41.878Z,23.1
2023-04-28T16:07:35.396Z,22.2
2023-04-28T16:13:27.714Z,21.3
2023-04-28T16:19:20.614Z,20.4
2023-04-28T16:24:58.680Z,19.6
2023-04-28T16:30:50.682Z,18.9
2023-04-28T16:36:43.976Z,18.1
2023-04-28T16:42:36.019Z,17.5
2023-04-28T16:48:28.677Z,16.9
2023-04-28T16:54:21.285Z,16.4
2023-04-28T17:00:13.925Z,15.9
2023-04-28T17:05:52.710Z,15.4
2023-04-28T17:11:29.213Z,14.9
2023-04-28T17:17:23.830Z,14.4
2023-04-28T17:23:16.692Z,13.9
2023-04-28T17:29:08.456Z,13.4
2023-04-28T17:35:03.500Z,13
2023-04-28T17:40:55.640Z,12.5
2023-04-28T17:46:47.049Z,12.1
2023-04-28T17:52:40.241Z,11.6
2023-04-28T17:58:33.156Z,11.2
2023-04-28T18:04:26.169Z,10.8
2023-04-28T18:10:21.762Z,10.4
2023-04-28T18:16:16.409Z,10.1
2023-04-28T18:22:11.259Z,9.8
2023-04-28T18:28:03.147Z,9.5
2023-04-28T18:33:58.685Z,9.3
2023-04-28T18:39:50.574Z,9.2
2023-04-28T18:45:43.114Z,9.1
2023-04-28T18:51:37.870Z,9.1
2023-04-28T18:57:29.543Z,9
2023-04-28T19:03:22.256Z,8.9
2023-04-28T19:09:04.725Z,8.8
2023-04-28T19:14:56.249Z,8.8
2023-04-28T19:20:47.975Z,8.8
2023-04-28T19:26:40.181Z,8.7
2023-04-28T19:32:32.836Z,8.6
2023-04-28T19:38:25.115Z,8.4
2023-04-28T19:44:17.821Z,8.4
2023-04-28T19:50:10.858Z,8.3
2023-04-28T19:56:03.225Z,8
2023-04-28T20:01:27.901Z,7.8
2023-04-28T20:07:22.049Z,7.5
2023-04-28T20:12:59.890Z,7.3
2023-04-28T20:18:51.812Z,7.1
2023-04-28T20:24:43.876Z,6.9
2023-04-28T20:30:36.560Z,6.7
2023-04-28T20:36:28.643Z,6.4
2023-04-28T20:42:20.216Z,6.3
2023-04-28T20:48:13.986Z,6
2023-04-28T20:54:07.071Z,5.8
2023-04-28T20:59:59.262Z,5.5
2023-04-28T21:05:52.773Z,5.3
2023-04-28T21:11:44.527Z,5.2
2023-04-28T21:17:35.727Z,4.9
2023-04-28T21:23:12.489Z,4.8
2023-04-28T21:29:04.021Z,4.6
2023-04-28T21:34:55.948Z,4.4
2023-04-28T21:40:47.197Z,4.2
2023-04-28T21:46:23.809Z,3.9
2023-04-28T21:51:44.541Z,3.8
2023-04-28T21:57:36.038Z,3.5
2023-04-28T22:03:29.065Z,3.3
2023-04-28T22:09:06.219Z,3.2
2023-04-28T22:15:13.569Z,3
2023-04-28T22:21:05.758Z,2.9
2023-04-28T22:26:57.219Z,2.8
2023-04-28T22:32:33.300Z,2.7
2023-04-28T22:38:09.437Z,2.6
2023-04-28T22:43:45.684Z,2.5
2023-04-28T22:49:36.860Z,2.4
2023-04-28T22:55:28.224Z,2.4
2023-04-28T23:01:06.960Z,2.3
2023-04-28T23:07:01.377Z,2.3
2023-04-28T23:12:37.373Z,2.3
2023-04-28T23:18:29.306Z,2.3
2023-04-28T23:24:23.009Z,2.3
2023-04-28T23:29:58.904Z,2.3
2023-04-28T23:35:35.532Z,2.1
2023-04-28T23:41:11.763Z,2.1
2023-04-28T23:46:48.257Z,2.1
2023-04-28T23:52:39.466Z,2
2023-04-28T23:58:30.377Z,2
